sensor_id;sensor_type;location;lat;lon;timestamp;temperature;humidity
6110;DHT22;3085;49.444;11.054;2024-01-11T00:01:14;-1.20;99.90
6110;DHT22;3085;49.444;11.054;2024-01-11T00:03:42;-1.10;99.90
6110;DHT22;3085;49.444;11.054;2024-01-11T00:06:08;-1.10;99.90
6110;DHT22;3085;49.444;11.054;2024-01-11T00:08:35;-1.10;99.90
6110;DHT22;3085;49.444;11.054;2024-01-11T00:11:02;-1.20;99.90
6110;DHT22;3085;49.444;11.054;2024-01-11T00:13:29;-1.30;99.90
6110;DHT22;3085;49.444;11.054;2024-01-11T00:15:55;-1.40;99.90
6110;DHT22;3085;49.444;11.054;2024-01-11T00:18:22;-1.50;99.90
6110;DHT22;3085;49.444;11.054;2024-01-11T00:20:50;-1.40;99.90
6110;DHT22;3085;49.444;11.054;2024-01-11T00:23:17;-1.30;99.90
6110;DHT22;3085;49.444;11.054;2024-01-11T00:25:44;-1.50;99.90
6110;DHT22;3085;49.444;11.054;2024-01-11T00:28:10;-1.60;99.90
6110;DHT22;3085;49.444;11.054;2024-01-11T00:30:37;-1.50;99.90
6110;DHT22;3085;49.444;11.054;2024-01-11T00:33:04;-1.70;99.90
6110;DHT22;3085;49.444;11.054;2024-01-11T00:35:32;-1.70;99.90
6110;DHT22;3085;49.444;11.054;2024-01-11T00:38:00;-1.70;99.90
6110;DHT22;3085;49.444;11.054;2024-01-11T00:40:27;-1.50;99.90
6110;DHT22;3085;49.444;11.054;2024-01-11T00:42:53;-1.70;99.90
6110;DHT22;3085;49.444;11.054;2024-01-11T00:45:20;-1.60;99.90
6110;DHT22;3085;49.444;11.054;2024-01-11T00:47:46;-1.60;99.90
6110;DHT22;3085;49.444;11.054;2024-01-11T00:50:13;-1.50;99.90
6110;DHT22;3085;49.444;11.054;2024-01-11T00:52:40;-1.50;99.90
6110;DHT22;3085;49.444;11.054;2024-01-11T00:55:08;-1.60;99.90
6110;DHT22;3085;49.444;11.054;2024-01-11T00:57:35;-1.20;99.90
6110;DHT22;3085;49.444;11.054;2024-01-11T01:00:02;-1.50;99.90
6110;DHT22;3085;49.444;11.054;2024-01-11T01:02:29;-1.50;99.90
6110;DHT22;3085;49.444;11.054;2024-01-11T01:04:55;-1.60;99.90
6110;DHT22;3085;49.444;11.054;2024-01-11T01:07:22;-1.50;99.90
6110;DHT22;3085;49.444;11.054;2024-01-11T01:09:49;-1.60;99.90
6110;DHT22;3085;49.444;11.054;2024-01-11T01:12:17;-1.60;99.90
6110;DHT22;3085;49.444;11.054;2024-01-11T01:14:43;-1.60;99.90
6110;DHT22;3085;49.444;11.054;2024-01-11T01:17:10;-1.70;99.90
6110;DHT22;3085;49.444;11.054;2024-01-11T01:19:37;-1.60;99.90
6110;DHT22;3085;49.444;11.054;2024-01-11T01:22:03;-1.90;99.90
6110;DHT22;3085;49.444;11.054;2024-01-11T01:24:31;-1.90;99.90
6110;DHT22;3085;49.444;11.054;2024-01-11T01:26:58;-1.90;99.90
6110;DHT22;3085;49.444;11.054;2024-01-11T01:29:26;-1.80;99.90
6110;DHT22;3085;49.444;11.054;2024-01-11T01:31:53;-1.80;99.90
6110;DHT22;3085;49.444;11.054;2024-01-11T01:34:19;-1.80;99.90
6110;DHT22;3085;49.444;11.054;2024-01-11T01:36:46;-1.40;99.90
6110;DHT22;3085;49.444;11.054;2024-01-11T01:39:13;-1.90;99.90
6110;DHT22;3085;49.444;11.054;2024-01-11T01:41:39;-1.50;99.90
6110;DHT22;3085;49.444;11.054;2024-01-11T01:44:06;-1.80;99.90
6110;DHT22;3085;49.444;11.054;2024-01-11T01:46:34;-1.70;99.90
6110;DHT22;3085;49.444;11.054;2024-01-11T01:49:02;-1.60;99.90
6110;DHT22;3085;49.444;11.054;2024-01-11T01:51:31;-1.70;99.90
6110;DHT22;3085;49.444;11.054;2024-01-11T01:53:59;-1.80;99.90
6110;DHT22;3085;49.444;11.054;2024-01-11T01:56:27;-1.90;99.90
6110;DHT22;3085;49.444;11.054;2024-01-11T01:58:53;-1.90;99.90
6110;DHT22;3085;49.444;11.054;2024-01-11T02:01:21;-1.70;99.90
6110;DHT22;3085;49.444;11.054;2024-01-11T02:03:50;-1.80;99.90
6110;DHT22;3085;49.444;11.054;2024-01-11T02:06:18;-1.80;99.90
6110;DHT22;3085;49.444;11.054;2024-01-11T02:08:48;-1.90;99.90
6110;DHT22;3085;49.444;11.054;2024-01-11T02:11:15;-1.60;99.90
6110;DHT22;3085;49.444;11.054;2024-01-11T02:13:42;-1.70;99.90
6110;DHT22;3085;49.444;11.054;2024-01-11T02:16:11;-1.80;99.90
6110;DHT22;3085;49.444;11.054;2024-01-11T02:18:38;-1.80;99.90
6110;DHT22;3085;49.444;11.054;2024-01-11T02:21:08;-1.90;99.90
6110;DHT22;3085;49.444;11.054;2024-01-11T02:41:55;-2.00;99.90
6110;DHT22;3085;49.444;11.054;2024-01-11T02:44:22;-1.90;99.90
6110;DHT22;3085;49.444;11.054;2024-01-11T02:46:49;-1.80;99.90
6110;DHT22;3085;49.444;11.054;2024-01-11T02:49:16;-2.00;99.90
6110;DHT22;3085;49.444;11.054;2024-01-11T02:51:42;-1.80;99.90
6110;DHT22;3085;49.444;11.054;2024-01-11T02:54:09;-1.90;99.90
6110;DHT22;3085;49.444;11.054;2024-01-11T02:56:36;-1.80;99.90
6110;DHT22;3085;49.444;11.054;2024-01-11T02:59:04;-1.80;99.90
6110;DHT22;3085;49.444;11.054;2024-01-11T03:01:30;-1.80;99.90
6110;DHT22;3085;49.444;11.054;2024-01-11T03:03:58;-1.80;99.90
6110;DHT22;3085;49.444;11.054;2024-01-11T03:06:24;-1.90;99.90
6110;DHT22;3085;49.444;11.054;2024-01-11T03:08:51;-1.80;99.90
6110;DHT22;3085;49.444;11.054;2024-01-11T03:11:18;-1.80;99.90
6110;DHT22;3085;49.444;11.054;2024-01-11T03:13:44;-1.90;99.90
6110;DHT22;3085;49.444;11.054;2024-01-11T03:16:12;-1.80;99.90
6110;DHT22;3085;49.444;11.054;2024-01-11T03:18:39;-1.80;99.90
6110;DHT22;3085;49.444;11.054;2024-01-11T03:21:06;-1.80;99.90
6110;DHT22;3085;49.444;11.054;2024-01-11T03:23:33;-1.80;99.90
6110;DHT22;3085;49.444;11.054;2024-01-11T03:25:59;-1.70;99.90
6110;DHT22;3085;49.444;11.054;2024-01-11T03:28:26;-1.80;99.90
6110;DHT22;3085;49.444;11.054;2024-01-11T03:30:53;-1.80;99.90
6110;DHT22;3085;49.444;11.054;2024-01-11T03:33:21;-1.80;99.90
6110;DHT22;3085;49.444;11.054;2024-01-11T03:35:47;-2.10;99.90
6110;DHT22;3085;49.444;11.054;2024-01-11T03:38:14;-2.30;99.90
6110;DHT22;3085;49.444;11.054;2024-01-11T03:40:41;-2.30;99.90
6110;DHT22;3085;49.444;11.054;2024-01-11T03:43:07;-2.30;99.90
6110;DHT22;3085;49.444;11.054;2024-01-11T03:45:34;-2.30;99.90
6110;DHT22;3085;49.444;11.054;2024-01-11T03:48:01;-2.20;99.90
6110;DHT22;3085;49.444;11.054;2024-01-11T03:50:29;-2.30;99.90
6110;DHT22;3085;49.444;11.054;2024-01-11T03:52:56;-2.40;99.90
6110;DHT22;3085;49.444;11.054;2024-01-11T03:55:23;-2.30;99.90
6110;DHT22;3085;49.444;11.054;2024-01-11T03:57:50;-2.30;99.90
6110;DHT22;3085;49.444;11.054;2024-01-11T04:00:18;-2.40;99.90
6110;DHT22;3085;49.444;11.054;2024-01-11T04:02:45;-2.20;99.90
6110;DHT22;3085;49.444;11.054;2024-01-11T04:05:12;-2.30;99.90
6110;DHT22;3085;49.444;11.054;2024-01-11T04:07:40;-2.40;99.90
6110;DHT22;3085;49.444;11.054;2024-01-11T04:10:07;-2.50;99.90
6110;DHT22;3085;49.444;11.054;2024-01-11T04:12:35;-2.60;99.90
6110;DHT22;3085;49.444;11.054;2024-01-11T04:15:02;-2.60;99.90
6110;DHT22;3085;49.444;11.054;2024-01-11T04:17:29;-2.50;99.90
6110;DHT22;3085;49.444;11.054;2024-01-11T04:19:55;-2.50;99.90
6110;DHT22;3085;49.444;11.054;2024-01-11T04:22:22;-2.50;99.90
6110;DHT22;3085;49.444;11.054;2024-01-11T04:24:50;-2.60;99.90
6110;DHT22;3085;49.444;11.054;2024-01-11T04:27:17;-2.60;99.90
6110;DHT22;3085;49.444;11.054;2024-01-11T04:29:43;-2.70;99.90
6110;DHT22;3085;49.444;11.054;2024-01-11T04:32:10;-2.70;99.90
6110;DHT22;3085;49.444;11.054;2024-01-11T04:34:36;-2.60;99.90
6110;DHT22;3085;49.444;11.054;2024-01-11T04:37:03;-2.70;99.90
6110;DHT22;3085;49.444;11.054;2024-01-11T04:39:31;-2.70;99.90
6110;DHT22;3085;49.444;11.054;2024-01-11T04:41:59;-2.70;99.90
6110;DHT22;3085;49.444;11.054;2024-01-11T04:44:27;-2.70;99.90
6110;DHT22;3085;49.444;11.054;2024-01-11T04:46:54;-2.90;99.90
6110;DHT22;3085;49.444;11.054;2024-01-11T04:49:20;-2.90;99.90
6110;DHT22;3085;49.444;11.054;2024-01-11T04:51:47;-2.80;99.90
6110;DHT22;3085;49.444;11.054;2024-01-11T04:54:14;-3.00;99.90
6110;DHT22;3085;49.444;11.054;2024-01-11T04:56:40;-3.00;99.90
6110;DHT22;3085;49.444;11.054;2024-01-11T04:59:08;-2.90;99.90
6110;DHT22;3085;49.444;11.054;2024-01-11T05:01:35;-3.00;99.90
6110;DHT22;3085;49.444;11.054;2024-01-11T05:04:02;-3.00;99.90
6110;DHT22;3085;49.444;11.054;2024-01-11T05:06:28;-3.00;99.90
6110;DHT22;3085;49.444;11.054;2024-01-11T05:08:55;-3.10;99.90
6110;DHT22;3085;49.444;11.054;2024-01-11T05:11:23;-3.20;99.90
6110;DHT22;3085;49.444;11.054;2024-01-11T05:13:51;-3.20;99.90
6110;DHT22;3085;49.444;11.054;2024-01-11T05:16:20;-3.20;99.90
6110;DHT22;3085;49.444;11.054;2024-01-11T05:18:48;-3.30;99.90
6110;DHT22;3085;49.444;11.054;2024-01-11T05:21:15;-3.30;99.90
6110;DHT22;3085;49.444;11.054;2024-01-11T05:23:41;-3.30;99.90
6110;DHT22;3085;49.444;11.054;2024-01-11T05:26:08;-3.40;99.90
6110;DHT22;3085;49.444;11.054;2024-01-11T05:28:36;-3.50;99.90
6110;DHT22;3085;49.444;11.054;2024-01-11T05:31:06;-3.40;99.90
6110;DHT22;3085;49.444;11.054;2024-01-11T05:33:35;-3.40;99.90
6110;DHT22;3085;49.444;11.054;2024-01-11T05:36:02;-3.20;99.90
6110;DHT22;3085;49.444;11.054;2024-01-11T05:38:29;-3.40;99.90
6110;DHT22;3085;49.444;11.054;2024-01-11T05:40:56;-3.20;99.90
6110;DHT22;3085;49.444;11.054;2024-01-11T05:43:23;-3.40;99.90
6110;DHT22;3085;49.444;11.054;2024-01-11T05:45:50;-3.40;99.90
6110;DHT22;3085;49.444;11.054;2024-01-11T05:48:17;-3.50;99.90
6110;DHT22;3085;49.444;11.054;2024-01-11T05:50:45;-3.40;99.90
6110;DHT22;3085;49.444;11.054;2024-01-11T05:53:12;-3.50;99.90
6110;DHT22;3085;49.444;11.054;2024-01-11T05:55:39;-3.50;99.90
6110;DHT22;3085;49.444;11.054;2024-01-11T05:58:06;-3.40;99.90
6110;DHT22;3085;49.444;11.054;2024-01-11T06:00:32;-3.20;99.90
6110;DHT22;3085;49.444;11.054;2024-01-11T06:02:59;-3.30;99.90
6110;DHT22;3085;49.444;11.054;2024-01-11T06:05:26;-3.10;99.90
6110;DHT22;3085;49.444;11.054;2024-01-11T06:07:54;-3.10;99.90
6110;DHT22;3085;49.444;11.054;2024-01-11T06:10:20;-3.10;99.90
6110;DHT22;3085;49.444;11.054;2024-01-11T06:12:47;-3.00;99.90
6110;DHT22;3085;49.444;11.054;2024-01-11T06:15:14;-3.00;99.90
6110;DHT22;3085;49.444;11.054;2024-01-11T06:17:40;-3.00;99.90
6110;DHT22;3085;49.444;11.054;2024-01-11T06:20:08;-3.10;99.90
6110;DHT22;3085;49.444;11.054;2024-01-11T06:22:36;-3.10;99.90
6110;DHT22;3085;49.444;11.054;2024-01-11T06:25:04;-3.10;99.90
6110;DHT22;3085;49.444;11.054;2024-01-11T06:27:31;-3.10;99.90
6110;DHT22;3085;49.444;11.054;2024-01-11T06:29:58;-3.20;99.90
6110;DHT22;3085;49.444;11.054;2024-01-11T06:32:24;-3.30;99.90
6110;DHT22;3085;49.444;11.054;2024-01-11T06:34:51;-3.30;99.90
6110;DHT22;3085;49.444;11.054;2024-01-11T06:37:18;-3.30;99.90
6110;DHT22;3085;49.444;11.054;2024-01-11T06:39:44;-3.30;99.90
6110;DHT22;3085;49.444;11.054;2024-01-11T06:42:12;-3.50;99.90
6110;DHT22;3085;49.444;11.054;2024-01-11T06:44:40;-3.70;99.90
6110;DHT22;3085;49.444;11.054;2024-01-11T06:47:07;-4.00;99.90
6110;DHT22;3085;49.444;11.054;2024-01-11T06:49:33;-4.50;99.90
6110;DHT22;3085;49.444;11.054;2024-01-11T06:52:00;-4.60;99.90
6110;DHT22;3085;49.444;11.054;2024-01-11T06:54:28;-4.60;99.90
6110;DHT22;3085;49.444;11.054;2024-01-11T06:56:55;-4.50;99.90
6110;DHT22;3085;49.444;11.054;2024-01-11T06:59:23;-4.50;99.90
6110;DHT22;3085;49.444;11.054;2024-01-11T07:01:50;-4.40;99.90
6110;DHT22;3085;49.444;11.054;2024-01-11T07:04:17;-4.40;99.90
6110;DHT22;3085;49.444;11.054;2024-01-11T07:06:44;-4.40;99.90
6110;DHT22;3085;49.444;11.054;2024-01-11T07:09:10;-4.60;99.90
6110;DHT22;3085;49.444;11.054;2024-01-11T07:11:37;-4.70;99.90
6110;DHT22;3085;49.444;11.054;2024-01-11T07:14:06;-4.60;99.90
6110;DHT22;3085;49.444;11.054;2024-01-11T07:16:35;-4.80;99.90
6110;DHT22;3085;49.444;11.054;2024-01-11T07:19:02;-4.70;99.90
6110;DHT22;3085;49.444;11.054;2024-01-11T07:21:28;-5.10;99.90
6110;DHT22;3085;49.444;11.054;2024-01-11T07:23:56;-4.80;99.90
6110;DHT22;3085;49.444;11.054;2024-01-11T07:26:23;-4.80;99.90
6110;DHT22;3085;49.444;11.054;2024-01-11T07:28:50;-4.70;99.90
6110;DHT22;3085;49.444;11.054;2024-01-11T07:31:17;-4.50;99.90
6110;DHT22;3085;49.444;11.054;2024-01-11T07:33:45;-4.50;99.90
6110;DHT22;3085;49.444;11.054;2024-01-11T07:36:11;-4.40;99.90
6110;DHT22;3085;49.444;11.054;2024-01-11T07:38:39;-4.40;99.90
6110;DHT22;3085;49.444;11.054;2024-01-11T07:41:05;-4.40;99.90
6110;DHT22;3085;49.444;11.054;2024-01-11T07:43:32;-4.40;99.90
6110;DHT22;3085;49.444;11.054;2024-01-11T07:46:01;-4.50;99.90
6110;DHT22;3085;49.444;11.054;2024-01-11T07:48:29;-4.50;99.90
6110;DHT22;3085;49.444;11.054;2024-01-11T07:50:58;-4.40;99.90
6110;DHT22;3085;49.444;11.054;2024-01-11T07:53:25;-4.40;99.90
6110;DHT22;3085;49.444;11.054;2024-01-11T07:55:52;-4.30;99.90
6110;DHT22;3085;49.444;11.054;2024-01-11T07:58:19;-4.20;99.90
6110;DHT22;3085;49.444;11.054;2024-01-11T08:00:47;-4.30;99.90
6110;DHT22;3085;49.444;11.054;2024-01-11T08:03:13;-4.50;99.90
6110;DHT22;3085;49.444;11.054;2024-01-11T08:05:43;-4.40;99.90
6110;DHT22;3085;49.444;11.054;2024-01-11T08:08:11;-4.40;99.90
6110;DHT22;3085;49.444;11.054;2024-01-11T08:10:38;-4.40;99.90
6110;DHT22;3085;49.444;11.054;2024-01-11T08:13:04;-4.60;99.90
6110;DHT22;3085;49.444;11.054;2024-01-11T08:15:31;-4.60;99.90
6110;DHT22;3085;49.444;11.054;2024-01-11T08:17:58;-4.50;99.90
6110;DHT22;3085;49.444;11.054;2024-01-11T08:20:25;-4.60;99.90
6110;DHT22;3085;49.444;11.054;2024-01-11T08:22:53;-4.60;99.90
6110;DHT22;3085;49.444;11.054;2024-01-11T08:25:21;-4.50;99.90
6110;DHT22;3085;49.444;11.054;2024-01-11T08:27:48;-4.50;99.90
6110;DHT22;3085;49.444;11.054;2024-01-11T08:30:15;-4.40;99.90
6110;DHT22;3085;49.444;11.054;2024-01-11T08:32:42;-4.40;99.90
6110;DHT22;3085;49.444;11.054;2024-01-11T08:35:09;-4.20;99.90
6110;DHT22;3085;49.444;11.054;2024-01-11T08:37:37;-4.40;99.90
6110;DHT22;3085;49.444;11.054;2024-01-11T08:40:04;-4.30;99.90
6110;DHT22;3085;49.444;11.054;2024-01-11T08:42:33;-4.20;99.90
6110;DHT22;3085;49.444;11.054;2024-01-11T08:44:59;-4.00;99.90
6110;DHT22;3085;49.444;11.054;2024-01-11T08:47:32;-4.00;99.90
6110;DHT22;3085;49.444;11.054;2024-01-11T08:49:58;-3.90;99.90
6110;DHT22;3085;49.444;11.054;2024-01-11T08:52:25;-3.90;99.90
6110;DHT22;3085;49.444;11.054;2024-01-11T08:54:52;-3.80;99.90
6110;DHT22;3085;49.444;11.054;2024-01-11T08:57:18;-3.60;99.90
6110;DHT22;3085;49.444;11.054;2024-01-11T08:59:46;-3.50;99.90
6110;DHT22;3085;49.444;11.054;2024-01-11T09:02:13;-3.50;99.90
6110;DHT22;3085;49.444;11.054;2024-01-11T09:04:40;-3.40;99.90
6110;DHT22;3085;49.444;11.054;2024-01-11T09:07:06;-3.40;99.90
6110;DHT22;3085;49.444;11.054;2024-01-11T09:09:33;-3.40;99.90
6110;DHT22;3085;49.444;11.054;2024-01-11T09:12:00;-3.30;99.90
6110;DHT22;3085;49.444;11.054;2024-01-11T09:14:28;-3.20;99.90
6110;DHT22;3085;49.444;11.054;2024-01-11T09:16:56;-2.90;99.90
6110;DHT22;3085;49.444;11.054;2024-01-11T09:19:23;-3.00;99.90
6110;DHT22;3085;49.444;11.054;2024-01-11T09:21:50;-3.20;99.90
6110;DHT22;3085;49.444;11.054;2024-01-11T09:24:17;-3.00;99.90
6110;DHT22;3085;49.444;11.054;2024-01-11T09:26:43;-3.00;99.90
6110;DHT22;3085;49.444;11.054;2024-01-11T09:29:10;-3.10;99.90
6110;DHT22;3085;49.444;11.054;2024-01-11T09:31:37;-3.00;99.90
6110;DHT22;3085;49.444;11.054;2024-01-11T09:34:05;-3.00;99.90
6110;DHT22;3085;49.444;11.054;2024-01-11T09:36:33;-2.90;99.90
6110;DHT22;3085;49.444;11.054;2024-01-11T09:39:00;-3.20;99.90
6110;DHT22;3085;49.444;11.054;2024-01-11T09:41:28;-3.20;99.90
6110;DHT22;3085;49.444;11.054;2024-01-11T09:43:56;-3.20;99.90
6110;DHT22;3085;49.444;11.054;2024-01-11T09:46:26;-3.10;99.90
6110;DHT22;3085;49.444;11.054;2024-01-11T09:48:55;-3.00;99.90
6110;DHT22;3085;49.444;11.054;2024-01-11T09:51:23;-2.90;99.90
6110;DHT22;3085;49.444;11.054;2024-01-11T09:53:51;-2.70;99.90
6110;DHT22;3085;49.444;11.054;2024-01-11T09:56:21;-2.80;99.90
6110;DHT22;3085;49.444;11.054;2024-01-11T09:58:50;-2.80;99.90
6110;DHT22;3085;49.444;11.054;2024-01-11T10:01:17;-2.60;99.90
6110;DHT22;3085;49.444;11.054;2024-01-11T10:03:44;-2.50;99.90
6110;DHT22;3085;49.444;11.054;2024-01-11T10:06:12;-2.40;99.90
6110;DHT22;3085;49.444;11.054;2024-01-11T10:08:43;-2.60;99.90
6110;DHT22;3085;49.444;11.054;2024-01-11T10:11:10;-2.50;99.90
6110;DHT22;3085;49.444;11.054;2024-01-11T10:13:37;-2.50;99.90
6110;DHT22;3085;49.444;11.054;2024-01-11T10:16:07;-2.50;99.90
6110;DHT22;3085;49.444;11.054;2024-01-11T10:18:35;-2.40;99.90
6110;DHT22;3085;49.444;11.054;2024-01-11T10:21:02;-2.40;99.90
6110;DHT22;3085;49.444;11.054;2024-01-11T10:23:29;-2.30;99.90
6110;DHT22;3085;49.444;11.054;2024-01-11T10:25:57;-2.20;99.90
6110;DHT22;3085;49.444;11.054;2024-01-11T10:28:25;-2.00;99.90
6110;DHT22;3085;49.444;11.054;2024-01-11T10:30:53;-1.90;99.90
6110;DHT22;3085;49.444;11.054;2024-01-11T10:33:20;-2.00;99.90
6110;DHT22;3085;49.444;11.054;2024-01-11T10:35:47;-2.00;99.90
6110;DHT22;3085;49.444;11.054;2024-01-11T10:38:16;-1.90;99.90
6110;DHT22;3085;49.444;11.054;2024-01-11T10:40:43;-1.80;99.90
6110;DHT22;3085;49.444;11.054;2024-01-11T10:43:12;-1.90;99.90
6110;DHT22;3085;49.444;11.054;2024-01-11T10:45:42;-1.80;99.90
6110;DHT22;3085;49.444;11.054;2024-01-11T10:48:14;-1.90;99.90
6110;DHT22;3085;49.444;11.054;2024-01-11T10:50:42;-1.80;99.90
6110;DHT22;3085;49.444;11.054;2024-01-11T10:53:15;-1.70;99.90
6110;DHT22;3085;49.444;11.054;2024-01-11T10:55:47;-1.60;99.90
6110;DHT22;3085;49.444;11.054;2024-01-11T10:58:17;-1.50;99.90
6110;DHT22;3085;49.444;11.054;2024-01-11T11:00:45;-1.40;99.90
6110;DHT22;3085;49.444;11.054;2024-01-11T11:03:12;-1.20;99.90
6110;DHT22;3085;49.444;11.054;2024-01-11T11:05:42;-1.20;99.90
6110;DHT22;3085;49.444;11.054;2024-01-11T11:08:09;-1.10;99.90
6110;DHT22;3085;49.444;11.054;2024-01-11T11:10:39;-1.10;99.90
6110;DHT22;3085;49.444;11.054;2024-01-11T11:13:06;-1.10;99.90
6110;DHT22;3085;49.444;11.054;2024-01-11T11:15:35;-1.10;99.90
6110;DHT22;3085;49.444;11.054;2024-01-11T11:18:03;-1.10;99.90
6110;DHT22;3085;49.444;11.054;2024-01-11T11:20:31;-1.00;99.90
6110;DHT22;3085;49.444;11.054;2024-01-11T11:23:05;-1.00;99.90
6110;DHT22;3085;49.444;11.054;2024-01-11T11:25:33;-0.90;99.90
6110;DHT22;3085;49.444;11.054;2024-01-11T11:28:00;-0.80;99.90
6110;DHT22;3085;49.444;11.054;2024-01-11T11:30:29;-0.70;99.90
6110;DHT22;3085;49.444;11.054;2024-01-11T11:32:57;-0.60;99.90
6110;DHT22;3085;49.444;11.054;2024-01-11T11:35:25;-0.70;99.90
6110;DHT22;3085;49.444;11.054;2024-01-11T11:37:55;-0.50;99.90
6110;DHT22;3085;49.444;11.054;2024-01-11T11:40:32;-0.40;99.90
6110;DHT22;3085;49.444;11.054;2024-01-11T11:43:02;-0.30;99.90
6110;DHT22;3085;49.444;11.054;2024-01-11T11:45:31;-0.30;99.90
6110;DHT22;3085;49.444;11.054;2024-01-11T11:47:59;-0.30;99.90
6110;DHT22;3085;49.444;11.054;2024-01-11T11:50:26;-0.20;99.90
6110;DHT22;3085;49.444;11.054;2024-01-11T11:52:56;-0.40;99.90
6110;DHT22;3085;49.444;11.054;2024-01-11T11:55:24;-0.50;99.90
6110;DHT22;3085;49.444;11.054;2024-01-11T11:57:52;-0.40;99.90
6110;DHT22;3085;49.444;11.054;2024-01-11T12:00:19;-0.30;99.90
6110;DHT22;3085;49.444;11.054;2024-01-11T12:02:46;-0.30;99.90
6110;DHT22;3085;49.444;11.054;2024-01-11T12:05:16;-0.30;99.90
6110;DHT22;3085;49.444;11.054;2024-01-11T12:07:43;-0.20;99.90
6110;DHT22;3085;49.444;11.054;2024-01-11T12:10:11;-0.20;99.90
6110;DHT22;3085;49.444;11.054;2024-01-11T12:12:38;-0.30;99.90
6110;DHT22;3085;49.444;11.054;2024-01-11T12:15:07;-0.30;99.90
6110;DHT22;3085;49.444;11.054;2024-01-11T12:17:34;-0.10;99.90
6110;DHT22;3085;49.444;11.054;2024-01-11T12:20:01;0.00;99.90
6110;DHT22;3085;49.444;11.054;2024-01-11T12:22:29;0.00;99.90
6110;DHT22;3085;49.444;11.054;2024-01-11T12:24:56;0.00;99.90
6110;DHT22;3085;49.444;11.054;2024-01-11T12:27:23;0.10;99.90
6110;DHT22;3085;49.444;11.054;2024-01-11T12:29:49;0.10;99.90
6110;DHT22;3085;49.444;11.054;2024-01-11T12:32:17;0.10;99.90
6110;DHT22;3085;49.444;11.054;2024-01-11T12:34:44;0.10;99.90
6110;DHT22;3085;49.444;11.054;2024-01-11T12:37:11;0.10;99.90
6110;DHT22;3085;49.444;11.054;2024-01-11T12:39:39;0.10;99.90
6110;DHT22;3085;49.444;11.054;2024-01-11T12:42:06;0.10;99.90
6110;DHT22;3085;49.444;11.054;2024-01-11T12:44:35;0.10;99.90
6110;DHT22;3085;49.444;11.054;2024-01-11T12:47:03;0.10;99.90
6110;DHT22;3085;49.444;11.054;2024-01-11T12:49:30;0.10;99.90
6110;DHT22;3085;49.444;11.054;2024-01-11T12:51:57;0.10;99.90
6110;DHT22;3085;49.444;11.054;2024-01-11T12:54:24;0.10;99.90
6110;DHT22;3085;49.444;11.054;2024-01-11T12:56:52;0.10;99.90
6110;DHT22;3085;49.444;11.054;2024-01-11T12:59:19;0.20;99.90
6110;DHT22;3085;49.444;11.054;2024-01-11T13:01:51;0.20;99.90
6110;DHT22;3085;49.444;11.054;2024-01-11T13:04:18;0.20;99.90
6110;DHT22;3085;49.444;11.054;2024-01-11T13:06:46;0.20;99.90
6110;DHT22;3085;49.444;11.054;2024-01-11T13:09:12;0.30;99.90
6110;DHT22;3085;49.444;11.054;2024-01-11T13:11:39;0.30;99.90
6110;DHT22;3085;49.444;11.054;2024-01-11T13:14:08;0.30;99.90
6110;DHT22;3085;49.444;11.054;2024-01-11T13:16:40;0.30;99.90
6110;DHT22;3085;49.444;11.054;2024-01-11T13:19:06;0.40;99.90
6110;DHT22;3085;49.444;11.054;2024-01-11T13:21:33;0.30;99.90
6110;DHT22;3085;49.444;11.054;2024-01-11T13:23:59;0.40;99.90
6110;DHT22;3085;49.444;11.054;2024-01-11T13:26:26;0.40;99.90
6110;DHT22;3085;49.444;11.054;2024-01-11T13:28:53;0.40;99.90
6110;DHT22;3085;49.444;11.054;2024-01-11T13:31:21;0.40;99.90
6110;DHT22;3085;49.444;11.054;2024-01-11T13:33:48;0.40;99.90
6110;DHT22;3085;49.444;11.054;2024-01-11T13:36:14;0.40;99.90
6110;DHT22;3085;49.444;11.054;2024-01-11T13:38:41;0.40;99.90
6110;DHT22;3085;49.444;11.054;2024-01-11T13:41:08;0.70;99.90
6110;DHT22;3085;49.444;11.054;2024-01-11T13:43:34;0.60;99.90
6110;DHT22;3085;49.444;11.054;2024-01-11T13:46:01;0.60;99.90
6110;DHT22;3085;49.444;11.054;2024-01-11T13:48:31;0.60;99.90
6110;DHT22;3085;49.444;11.054;2024-01-11T13:50:58;0.70;99.90
6110;DHT22;3085;49.444;11.054;2024-01-11T13:53:25;0.70;99.90
6110;DHT22;3085;49.444;11.054;2024-01-11T13:55:51;0.80;99.90
6110;DHT22;3085;49.444;11.054;2024-01-11T13:58:18;0.80;99.90
6110;DHT22;3085;49.444;11.054;2024-01-11T14:00:45;0.90;99.90
6110;DHT22;3085;49.444;11.054;2024-01-11T14:03:11;0.90;99.90
6110;DHT22;3085;49.444;11.054;2024-01-11T14:05:39;1.00;99.90
6110;DHT22;3085;49.444;11.054;2024-01-11T14:08:07;1.10;99.90
6110;DHT22;3085;49.444;11.054;2024-01-11T14:10:34;1.50;99.90
6110;DHT22;3085;49.444;11.054;2024-01-11T14:13:01;1.80;99.90
6110;DHT22;3085;49.444;11.054;2024-01-11T14:15:27;1.50;99.90
6110;DHT22;3085;49.444;11.054;2024-01-11T14:17:54;1.50;99.90
6110;DHT22;3085;49.444;11.054;2024-01-11T14:20:21;1.60;99.90
6110;DHT22;3085;49.444;11.054;2024-01-11T14:22:50;1.90;99.90
6110;DHT22;3085;49.444;11.054;2024-01-11T14:25:17;2.10;99.90
6110;DHT22;3085;49.444;11.054;2024-01-11T14:27:44;2.20;99.90
6110;DHT22;3085;49.444;11.054;2024-01-11T14:30:12;2.00;99.90
6110;DHT22;3085;49.444;11.054;2024-01-11T14:32:39;1.50;99.90
6110;DHT22;3085;49.444;11.054;2024-01-11T14:35:07;1.40;99.90
6110;DHT22;3085;49.444;11.054;2024-01-11T14:37:35;1.30;99.90
6110;DHT22;3085;49.444;11.054;2024-01-11T14:40:05;1.30;99.90
6110;DHT22;3085;49.444;11.054;2024-01-11T14:42:32;1.10;99.90
6110;DHT22;3085;49.444;11.054;2024-01-11T14:44:58;0.90;99.90
6110;DHT22;3085;49.444;11.054;2024-01-11T14:47:25;0.90;99.90
6110;DHT22;3085;49.444;11.054;2024-01-11T14:49:52;0.80;99.90
6110;DHT22;3085;49.444;11.054;2024-01-11T14:52:18;0.90;99.90
6110;DHT22;3085;49.444;11.054;2024-01-11T14:54:45;0.90;99.90
6110;DHT22;3085;49.444;11.054;2024-01-11T14:57:14;0.90;99.90
6110;DHT22;3085;49.444;11.054;2024-01-11T14:59:41;0.90;99.90
6110;DHT22;3085;49.444;11.054;2024-01-11T15:02:07;0.80;99.90
6110;DHT22;3085;49.444;11.054;2024-01-11T15:04:34;0.80;99.90
6110;DHT22;3085;49.444;11.054;2024-01-11T15:07:01;0.80;99.90
6110;DHT22;3085;49.444;11.054;2024-01-11T15:09:28;0.80;99.90
6110;DHT22;3085;49.444;11.054;2024-01-11T15:11:55;0.80;99.90
6110;DHT22;3085;49.444;11.054;2024-01-11T15:14:23;0.80;99.90
6110;DHT22;3085;49.444;11.054;2024-01-11T15:16:50;0.80;99.90
6110;DHT22;3085;49.444;11.054;2024-01-11T15:19:16;0.80;99.90
6110;DHT22;3085;49.444;11.054;2024-01-11T15:21:43;0.70;99.90
6110;DHT22;3085;49.444;11.054;2024-01-11T15:24:09;0.80;99.90
6110;DHT22;3085;49.444;11.054;2024-01-11T15:26:36;0.80;99.90
6110;DHT22;3085;49.444;11.054;2024-01-11T15:29:03;0.80;99.90
6110;DHT22;3085;49.444;11.054;2024-01-11T15:31:31;0.70;99.90
6110;DHT22;3085;49.444;11.054;2024-01-11T15:34:01;0.80;99.90
6110;DHT22;3085;49.444;11.054;2024-01-11T15:36:27;0.70;99.90
6110;DHT22;3085;49.444;11.054;2024-01-11T15:38:54;0.80;99.90
6110;DHT22;3085;49.444;11.054;2024-01-11T15:41:21;0.80;99.90
6110;DHT22;3085;49.444;11.054;2024-01-11T15:43:47;0.80;99.90
6110;DHT22;3085;49.444;11.054;2024-01-11T15:46:15;0.80;99.90
6110;DHT22;3085;49.444;11.054;2024-01-11T15:48:43;0.80;99.90
6110;DHT22;3085;49.444;11.054;2024-01-11T15:51:10;0.80;99.90
6110;DHT22;3085;49.444;11.054;2024-01-11T15:53:37;0.80;99.90
6110;DHT22;3085;49.444;11.054;2024-01-11T15:56:04;0.80;99.90
6110;DHT22;3085;49.444;11.054;2024-01-11T15:58:30;0.70;99.90
6110;DHT22;3085;49.444;11.054;2024-01-11T16:00:57;0.70;99.90
6110;DHT22;3085;49.444;11.054;2024-01-11T16:03:24;0.60;99.90
6110;DHT22;3085;49.444;11.054;2024-01-11T16:05:52;0.60;99.90
6110;DHT22;3085;49.444;11.054;2024-01-11T16:08:18;0.60;99.90